createdAt,value
2023-02-11T00:01:38.832Z,76.94
2023-02-11T00:04:08.638Z,77.16
2023-02-11T00:06:37.691Z,76.67
2023-02-11T00:09:06.890Z,77.15
2023-02-11T00:11:35.674Z,77.20
2023-02-11T00:14:07.856Z,76.31
2023-02-11T00:16:37.668Z,76.77
2023-02-11T00:19:06.746Z,76.17
2023-02-11T00:21:36.455Z,75.62
2023-02-11T00:24:05.617Z,76.20
2023-02-11T00:26:36.588Z,75.70
2023-02-11T00:29:06.409Z,75.25
2023-02-11T00:31:35.311Z,75.71
2023-02-11T00:34:05.149Z,75.20
2023-02-11T00:36:33.590Z,75.53
2023-02-11T00:39:02.263Z,74.42
2023-02-11T00:41:31.210Z,74.37
2023-02-11T00:43:59.598Z,73.95
2023-02-11T00:46:28.027Z,73.60
2023-02-11T00:48:57.941Z,74.00
2023-02-11T00:51:29.451Z,73.30
2023-02-11T00:53:58.072Z,74.01
2023-02-11T00:56:26.493Z,73.71
2023-02-11T00:58:55.123Z,73.40
2023-02-11T01:01:23.593Z,73.78
2023-02-11T01:03:52.500Z,72.96
2023-02-11T01:06:20.969Z,72.84
2023-02-11T01:08:50.717Z,73.16
2023-02-11T01:11:21.937Z,72.95
2023-02-11T01:13:51.349Z,73.57
2023-02-11T01:16:21.678Z,73.60
2023-02-11T01:18:50.317Z,73.60
2023-02-11T01:21:18.890Z,72.94
2023-02-11T01:23:47.233Z,72.46
2023-02-11T01:26:16.979Z,72.55
2023-02-11T01:28:45.703Z,73.49
2023-02-11T01:31:14.176Z,73.15
2023-02-11T01:33:42.635Z,73.50
2023-02-11T01:36:12.865Z,72.58
2023-02-11T01:38:41.463Z,73.21
2023-02-11T01:41:14.637Z,72.53
2023-02-11T01:43:48.222Z,73.37
2023-02-11T01:46:29.369Z,73.25
2023-02-11T01:49:02.547Z,73.51
2023-02-11T01:51:37.317Z,73.17
2023-02-11T01:54:25.919Z,72.80
2023-02-11T01:57:15.882Z,73.39
2023-02-11T01:59:52.599Z,72.58
2023-02-11T02:02:27.803Z,72.85
2023-02-11T02:05:03.705Z,72.30
2023-02-11T02:07:40.683Z,72.24
2023-02-11T02:10:17.797Z,72.49
2023-02-11T02:12:46.156Z,73.11
2023-02-11T02:15:33.069Z,72.31
2023-02-11T02:18:11.245Z,73.02
2023-02-11T02:21:37.663Z,72.30
2023-02-11T02:24:44.237Z,72.39
2023-02-11T02:27:38.671Z,72.96
2023-02-11T02:30:51.914Z,72.84
2023-02-11T02:33:47.009Z,72.77
2023-02-11T02:36:24.267Z,72.47
2023-02-11T02:38:59.034Z,72.83
2023-02-11T02:41:31.726Z,73.04
2023-02-11T02:44:00.454Z,72.31
2023-02-11T02:46:32.729Z,72.37
2023-02-11T02:49:02.846Z,72.40
2023-02-11T02:51:50.239Z,72.39
2023-02-11T02:55:04.291Z,72.07
2023-02-11T02:57:39.890Z,72.38
2023-02-11T03:00:25.827Z,72.38
2023-02-11T03:03:13.611Z,72.44
2023-02-11T03:05:55.264Z,72.01
2023-02-11T03:08:32.103Z,72.85
2023-02-11T03:11:02.473Z,72.96
2023-02-11T03:13:34.378Z,72.88
2023-02-11T03:16:09.499Z,72.46
2023-02-11T03:18:42.088Z,72.52
2023-02-11T03:21:15.407Z,71.93
2023-02-11T03:23:51.238Z,72.39
2023-02-11T03:26:26.985Z,71.90
2023-02-11T03:29:04.270Z,71.69
2023-02-11T03:31:41.485Z,72.04
2023-02-11T03:34:15.745Z,71.50
2023-02-11T03:36:51.022Z,71.33
2023-02-11T03:39:25.794Z,71.18
2023-02-11T03:41:59.800Z,70.66
2023-02-11T03:44:35.219Z,70.30
2023-02-11T03:47:06.900Z,70.40
2023-02-11T03:49:36.804Z,70.69
2023-02-11T03:52:11.340Z,70.33
2023-02-11T03:54:42.998Z,70.47
2023-02-11T03:57:11.398Z,70.19
2023-02-11T03:59:55.065Z,70.33
2023-02-11T04:02:26.446Z,69.53
2023-02-11T04:04:54.793Z,70.31
2023-02-11T04:07:24.866Z,70.23
2023-02-11T04:09:53.589Z,69.57
2023-02-11T04:12:22.137Z,69.64
2023-02-11T04:14:50.550Z,69.41
2023-02-11T04:17:19.149Z,70.12
2023-02-11T04:19:47.469Z,69.10
2023-02-11T04:22:15.907Z,69.30
2023-02-11T04:24:45.619Z,69.62
2023-02-11T04:27:14.045Z,69.30
2023-02-11T04:29:42.405Z,69.29
2023-02-11T04:32:12.085Z,69.58
2023-02-11T04:34:40.701Z,69.34
2023-02-11T04:37:09.550Z,69.07
2023-02-11T04:39:38.120Z,68.87
2023-02-11T04:42:08.288Z,69.86
2023-02-11T04:44:36.642Z,69.38
2023-02-11T04:47:05.513Z,68.82
2023-02-11T04:49:33.901Z,68.93
2023-02-11T04:52:02.292Z,69.08
2023-02-11T04:54:30.655Z,69.49
2023-02-11T04:56:59.002Z,69.11
2023-02-11T04:59:28.753Z,68.99
2023-02-11T05:01:57.069Z,68.97
2023-02-11T05:04:25.551Z,68.89
2023-02-11T05:06:53.982Z,69.11
2023-02-11T05:09:22.648Z,69.46
2023-02-11T05:11:50.968Z,69.19
2023-02-11T05:14:19.338Z,68.57
2023-02-11T05:16:49.073Z,69.09
2023-02-11T05:19:17.473Z,69.02
2023-02-11T05:22:01.471Z,68.47
2023-02-11T05:24:30.994Z,68.74
2023-02-11T05:26:59.401Z,68.68
2023-02-11T05:29:27.799Z,69.07
2023-02-11T05:31:57.587Z,69.08
2023-02-11T05:34:25.970Z,69.05
2023-02-11T05:36:54.352Z,69.20
2023-02-11T05:39:22.779Z,69.00
2023-02-11T05:41:51.118Z,68.62
2023-02-11T05:44:19.500Z,68.24
2023-02-11T05:46:49.210Z,68.83
2023-02-11T05:49:19.843Z,68.83
2023-02-11T05:51:48.291Z,68.49
2023-02-11T05:54:16.854Z,68.78
2023-02-11T05:56:45.336Z,69.21
2023-02-11T05:59:15.574Z,68.63
2023-02-11T06:01:44.329Z,69.00
2023-02-11T06:04:12.736Z,68.26
2023-02-11T06:06:42.462Z,68.85
2023-02-11T06:09:11.891Z,68.80
2023-02-11T06:11:40.579Z,68.79
2023-02-11T06:14:09.959Z,68.54
2023-02-11T06:16:38.624Z,68.68
2023-02-11T06:19:07.019Z,68.75
2023-02-11T06:21:43.373Z,68.72
2023-02-11T06:24:14.216Z,68.46
2023-02-11T06:26:42.605Z,67.53
2023-02-11T06:29:11.145Z,68.47
2023-02-11T06:31:40.309Z,67.97
2023-02-11T06:34:09.425Z,68.63
2023-02-11T06:36:40.474Z,68.22
2023-02-11T06:39:09.525Z,68.50
2023-02-11T06:41:39.317Z,68.45
2023-02-11T06:44:08.156Z,68.34
2023-02-11T06:46:36.620Z,67.91
2023-02-11T06:49:05.033Z,68.56
2023-02-11T06:51:33.404Z,68.10
2023-02-11T06:54:01.758Z,67.53
2023-02-11T06:56:30.425Z,68.00
2023-02-11T06:59:00.188Z,67.46
2023-02-11T07:01:29.704Z,67.40
2023-02-11T07:03:58.286Z,68.16
2023-02-11T07:06:28.988Z,67.97
2023-02-11T07:08:58.003Z,68.16
2023-02-11T07:11:29.860Z,68.07
2023-02-11T07:14:04.887Z,67.79
2023-02-11T07:16:34.138Z,68.03
2023-02-11T07:19:03.046Z,68.22
2023-02-11T07:21:31.722Z,68.33
2023-02-11T07:24:00.249Z,68.79
2023-02-11T07:26:29.016Z,69.48
2023-02-11T07:28:57.504Z,69.29
2023-02-11T07:31:30.570Z,69.97
2023-02-11T07:34:01.578Z,69.81
2023-02-11T07:36:32.155Z,69.70
2023-02-11T07:39:01.163Z,70.31
2023-02-11T07:41:29.841Z,71.58
2023-02-11T07:43:58.236Z,71.21
2023-02-11T07:46:28.990Z,71.66
2023-02-11T07:48:57.700Z,72.82
2023-02-11T07:51:29.303Z,72.23
2023-02-11T07:54:00.482Z,73.25
2023-02-11T07:56:30.254Z,73.45
2023-02-11T07:59:03.197Z,73.32
2023-02-11T08:01:33.320Z,73.53
2023-02-11T08:04:03.230Z,74.09
2023-02-11T08:06:34.055Z,74.01
2023-02-11T08:09:07.078Z,73.76
2023-02-11T08:11:35.470Z,73.83
2023-02-11T08:14:04.138Z,74.53
2023-02-11T08:16:36.035Z,74.78
2023-02-11T08:19:08.143Z,74.58
2023-02-11T08:21:36.554Z,75.58
2023-02-11T08:24:05.510Z,75.15
2023-02-11T08:26:35.622Z,75.50
2023-02-11T08:29:09.970Z,76.31
2023-02-11T08:31:43.079Z,76.88
2023-02-11T08:34:14.160Z,77.58
2023-02-11T08:36:44.803Z,76.92
2023-02-11T08:39:19.689Z,77.12
2023-02-11T08:41:49.848Z,78.26
2023-02-11T08:44:18.866Z,78.09
2023-02-11T08:46:49.681Z,78.19
2023-02-11T08:49:18.608Z,77.78
2023-02-11T08:51:48.101Z,77.85
2023-02-11T08:54:17.389Z,78.25
2023-02-11T08:56:47.025Z,77.95
2023-02-11T08:59:17.841Z,78.31
2023-02-11T09:01:47.344Z,78.75
2023-02-11T09:04:17.142Z,78.55
2023-02-11T09:06:45.782Z,78.35
2023-02-11T09:09:16.249Z,78.43
2023-02-11T09:11:46.121Z,78.11
2023-02-11T09:14:20.466Z,77.89
2023-02-11T09:16:49.624Z,78.47
2023-02-11T09:19:20.141Z,78.96
2023-02-11T09:21:49.148Z,78.57
2023-02-11T09:24:17.589Z,78.08
2023-02-11T09:26:46.149Z,78.85
2023-02-11T09:29:14.596Z,78.19
2023-02-11T09:31:43.105Z,78.26
2023-02-11T09:34:13.468Z,78.82
2023-02-11T09:36:43.667Z,78.12
2023-02-11T09:39:17.989Z,78.53
2023-02-11T09:42:30.454Z,78.67
2023-02-11T09:45:00.618Z,79.05
2023-02-11T09:47:34.131Z,78.94
2023-02-11T09:50:07.800Z,79.24
2023-02-11T09:52:45.576Z,78.53
2023-02-11T09:55:22.685Z,79.24
2023-02-11T09:57:51.070Z,79.67
2023-02-11T10:00:25.374Z,80.04
2023-02-11T10:03:22.729Z,80.12
2023-02-11T10:06:26.475Z,80.36
2023-02-11T10:09:07.730Z,80.35
2023-02-11T10:11:47.469Z,81.62
2023-02-11T10:14:37.556Z,81.47
2023-02-11T10:17:20.470Z,81.28
2023-02-11T10:20:16.540Z,81.24
2023-02-11T10:22:50.445Z,81.69
2023-02-11T10:25:25.071Z,81.70
2023-02-11T10:27:56.538Z,81.93
2023-02-11T10:30:33.386Z,81.52
2023-02-11T10:33:11.827Z,82.64
2023-02-11T10:35:40.480Z,82.68
2023-02-11T10:38:10.341Z,81.95
2023-02-11T10:40:40.069Z,82.75
2023-02-11T10:43:14.610Z,82.39
2023-02-11T10:45:46.073Z,82.86
2023-02-11T10:48:43.903Z,82.97
2023-02-11T10:51:22.390Z,82.29
2023-02-11T10:54:13.873Z,83.22
2023-02-11T10:56:50.105Z,82.61
2023-02-11T10:59:28.352Z,82.56
2023-02-11T11:02:01.330Z,83.55
2023-02-11T11:04:41.434Z,82.85
2023-02-11T11:07:21.418Z,82.73
2023-02-11T11:09:54.207Z,82.75
2023-02-11T11:12:40.282Z,82.72
2023-02-11T11:15:21.982Z,83.32
2023-02-11T11:17:51.445Z,82.50
2023-02-11T11:20:27.430Z,82.58
2023-02-11T11:23:15.257Z,82.46
2023-02-11T11:25:47.142Z,83.02
2023-02-11T11:28:27.722Z,82.56
2023-02-11T11:30:58.808Z,82.64
2023-02-11T11:33:32.363Z,83.06
2023-02-11T11:36:05.979Z,82.87
2023-02-11T11:38:37.453Z,83.06
2023-02-11T11:41:24.291Z,82.78
2023-02-11T11:44:05.598Z,83.00
2023-02-11T11:46:37.596Z,83.10
2023-02-11T11:49:27.738Z,83.49
2023-02-11T11:52:11.408Z,83.33
2023-02-11T11:54:41.319Z,83.81
2023-02-11T11:57:16.103Z,83.09
2023-02-11T11:59:46.144Z,83.57
2023-02-11T12:02:54.532Z,83.84
2023-02-11T12:05:29.146Z,83.75
2023-02-11T12:08:14.327Z,84.19
2023-02-11T12:11:04.506Z,83.93
2023-02-11T12:14:01.702Z,84.72
2023-02-11T12:16:45.723Z,84.30
2023-02-11T12:19:56.584Z,83.81
2023-02-11T12:22:43.058Z,84.16
2023-02-11T12:25:40.995Z,84.50
2023-02-11T12:28:25.726Z,84.69
2023-02-11T12:31:28.853Z,84.46
2023-02-11T12:34:29.089Z,84.30
2023-02-11T12:37:10.341Z,84.43
2023-02-11T12:39:46.238Z,84.20
2023-02-11T12:43:05.137Z,84.22
2023-02-11T12:46:20.936Z,84.77
2023-02-11T12:49:29.047Z,84.81
2023-02-11T12:52:16.892Z,84.47
2023-02-11T12:54:52.887Z,84.11
2023-02-11T12:57:26.124Z,83.90
2023-02-11T13:00:04.664Z,84.27
2023-02-11T13:02:43.442Z,84.05
2023-02-11T13:05:26.277Z,84.06
2023-02-11T13:08:01.442Z,83.98
2023-02-11T13:10:35.345Z,84.43
2023-02-11T13:13:20.104Z,84.43
2023-02-11T13:15:56.417Z,83.96
2023-02-11T13:18:37.814Z,83.62
2023-02-11T13:21:35.076Z,83.55
2023-02-11T13:24:20.882Z,84.27
2023-02-11T13:26:58.967Z,83.74
2023-02-11T13:29:41.839Z,83.75
2023-02-11T13:32:13.554Z,84.23
2023-02-11T13:35:00.921Z,83.04
2023-02-11T13:37:37.478Z,83.77
2023-02-11T13:40:22.008Z,82.95
2023-02-11T13:42:54.168Z,83.32
2023-02-11T13:45:31.895Z,83.60
2023-02-11T13:48:03.485Z,84.10
2023-02-11T13:50:38.862Z,84.06
2023-02-11T13:53:09.098Z,83.98
2023-02-11T13:55:38.274Z,83.64
2023-02-11T13:58:39.917Z,84.51
2023-02-11T14:01:08.955Z,84.93
2023-02-11T14:03:57.840Z,84.22
2023-02-11T14:06:46.756Z,84.13
2023-02-11T14:09:41.288Z,84.36
2023-02-11T14:12:35.926Z,84.08
2023-02-11T14:15:27.603Z,84.55
2023-02-11T14:17:55.950Z,84.54
2023-02-11T14:20:45.388Z,84.02
2023-02-11T14:23:28.421Z,84.84
2023-02-11T14:26:29.576Z,84.79
2023-02-11T14:29:07.895Z,84.12
2023-02-11T14:31:43.319Z,84.22
2023-02-11T14:34:45.547Z,84.37
2023-02-11T14:37:28.581Z,84.29
2023-02-11T14:40:11.770Z,84.02
2023-02-11T14:42:41.707Z,83.59
2023-02-11T14:45:17.283Z,84.26
2023-02-11T14:47:53.685Z,84.62
2023-02-11T14:50:28.322Z,83.83
2023-02-11T14:53:01.702Z,84.08
2023-02-11T14:55:34.438Z,84.00
2023-02-11T14:58:16.930Z,84.61
2023-02-11T15:00:58.515Z,84.58
2023-02-11T15:03:30.725Z,84.44
2023-02-11T15:06:02.688Z,84.11
2023-02-11T15:08:33.171Z,84.61
2023-02-11T15:11:04.701Z,84.80
2023-02-11T15:13:36.236Z,84.89
2023-02-11T15:16:09.974Z,84.84
2023-02-11T15:18:43.786Z,85.22
2023-02-11T15:21:12.771Z,84.55
2023-02-11T15:23:45.028Z,85.40
2023-02-11T15:26:22.422Z,85.22
2023-02-11T15:28:53.411Z,85.57
2023-02-11T15:31:24.643Z,85.01
2023-02-11T15:33:54.814Z,85.66
2023-02-11T15:36:36.389Z,85.55
2023-02-11T15:39:32.463Z,85.03
2023-02-11T15:42:40.823Z,84.98
2023-02-11T15:45:29.750Z,85.68
2023-02-11T15:48:11.111Z,85.75
2023-02-11T15:50:41.456Z,85.29
2023-02-11T15:53:28.931Z,85.35
2023-02-11T15:56:05.560Z,85.78
2023-02-11T15:58:39.014Z,85.75
2023-02-11T16:01:10.044Z,85.50
2023-02-11T16:03:38.648Z,85.98
2023-02-11T16:06:22.882Z,85.97
2023-02-11T16:09:22.098Z,85.56
2023-02-11T16:11:59.372Z,85.97
2023-02-11T16:14:34.809Z,85.98
2023-02-11T16:17:08.657Z,85.73
2023-02-11T16:19:43.778Z,86.21
2023-02-11T16:22:18.185Z,86.17
2023-02-11T16:24:51.084Z,85.30
2023-02-11T16:27:25.454Z,85.24
2023-02-11T16:29:54.129Z,85.48
2023-02-11T16:32:26.659Z,85.47
2023-02-11T16:34:57.965Z,85.73
2023-02-11T16:37:26.800Z,85.74
2023-02-11T16:39:55.853Z,85.57
2023-02-11T16:42:24.471Z,85.94
2023-02-11T16:44:52.808Z,85.91
2023-02-11T16:47:27.809Z,85.89
2023-02-11T16:49:57.326Z,85.65
2023-02-11T16:52:26.537Z,86.00
2023-02-11T16:54:55.028Z,85.47
2023-02-11T16:57:28.899Z,85.89
2023-02-11T17:00:02.121Z,85.69
2023-02-11T17:02:36.106Z,85.20
2023-02-11T17:05:08.753Z,85.65
2023-02-11T17:07:37.131Z,85.52
2023-02-11T17:10:14.116Z,85.32
2023-02-11T17:12:42.467Z,85.38
2023-02-11T17:15:11.601Z,85.42
2023-02-11T17:17:41.518Z,85.55
2023-02-11T17:20:13.236Z,85.32
2023-02-11T17:22:41.730Z,85.79
2023-02-11T17:25:10.625Z,85.12
2023-02-11T17:27:39.017Z,85.44
2023-02-11T17:30:09.308Z,85.42
2023-02-11T17:32:40.102Z,85.92
2023-02-11T17:35:09.149Z,85.69
2023-02-11T17:37:37.570Z,85.49
2023-02-11T17:40:07.767Z,85.67
2023-02-11T17:42:37.250Z,85.44
2023-02-11T17:45:06.403Z,85.75
2023-02-11T17:47:34.799Z,85.81
2023-02-11T17:50:05.374Z,85.88
2023-02-11T17:52:33.749Z,85.39
2023-02-11T17:55:02.126Z,85.50
2023-02-11T17:57:30.487Z,84.96
2023-02-11T17:59:59.097Z,85.38
2023-02-11T18:02:27.513Z,85.31
2023-02-11T18:04:57.610Z,85.60
2023-02-11T18:07:28.138Z,85.53
2023-02-11T18:09:57.862Z,85.47
2023-02-11T18:12:26.452Z,85.06
2023-02-11T18:14:58.120Z,85.35
2023-02-11T18:17:27.115Z,85.20
2023-02-11T18:19:57.781Z,84.76
2023-02-11T18:22:28.088Z,85.11
2023-02-11T18:24:56.947Z,84.37
2023-02-11T18:27:26.054Z,85.07
2023-02-11T18:29:54.541Z,84.45
2023-02-11T18:32:22.984Z,84.64
2023-02-11T18:34:51.426Z,84.33
2023-02-11T18:37:20.026Z,84.35
2023-02-11T18:39:49.768Z,84.33
2023-02-11T18:42:18.176Z,84.30
2023-02-11T18:44:46.757Z,84.71
2023-02-11T18:47:15.226Z,84.51
2023-02-11T18:49:43.592Z,84.25
2023-02-11T18:52:12.132Z,84.01
2023-02-11T18:54:40.919Z,84.23
2023-02-11T18:57:10.816Z,84.15
2023-02-11T18:59:39.282Z,83.66
2023-02-11T19:02:07.847Z,84.18
2023-02-11T19:04:38.420Z,83.84
2023-02-11T19:07:07.037Z,83.91
2023-02-11T19:09:35.436Z,83.87
2023-02-11T19:12:04.857Z,83.52
2023-02-11T19:14:35.373Z,83.57
2023-02-11T19:17:06.540Z,83.76
2023-02-11T19:19:37.405Z,83.54
2023-02-11T19:22:10.259Z,83.74
2023-02-11T19:24:39.872Z,83.34
2023-02-11T19:27:08.261Z,83.67
2023-02-11T19:29:38.495Z,83.55
2023-02-11T19:32:07.784Z,83.17
2023-02-11T19:34:41.351Z,83.16
2023-02-11T19:37:12.203Z,82.82
2023-02-11T19:39:40.606Z,82.97
2023-02-11T19:42:08.983Z,83.32
2023-02-11T19:44:39.119Z,82.95
2023-02-11T19:47:07.947Z,82.93
2023-02-11T19:49:36.315Z,82.88
2023-02-11T19:52:07.015Z,83.08
2023-02-11T19:54:35.520Z,82.99
2023-02-11T19:57:03.960Z,82.29
2023-02-11T19:59:32.490Z,82.44
2023-02-11T20:02:02.348Z,82.51
2023-02-11T20:04:32.211Z,82.25
2023-02-11T20:07:00.779Z,82.64
2023-02-11T20:09:31.162Z,82.29
2023-02-11T20:12:00.047Z,82.25
2023-02-11T20:14:28.424Z,82.09
2023-02-11T20:16:56.877Z,82.28
2023-02-11T20:19:27.963Z,82.40
2023-02-11T20:21:56.629Z,82.10
2023-02-11T20:24:26.172Z,81.83
2023-02-11T20:26:56.071Z,82.52
2023-02-11T20:29:26.305Z,82.21
2023-02-11T20:31:55.570Z,82.30
2023-02-11T20:34:25.187Z,82.13
2023-02-11T20:36:55.067Z,81.78
2023-02-11T20:39:25.284Z,82.04
2023-02-11T20:41:54.871Z,82.02
2023-02-11T20:44:24.122Z,81.82
2023-02-11T20:46:55.037Z,81.84
2023-02-11T20:49:25.603Z,81.40
2023-02-11T20:51:56.870Z,81.90
2023-02-11T20:54:26.574Z,81.81
2023-02-11T20:56:57.032Z,81.92
2023-02-11T20:59:25.905Z,81.78
2023-02-11T21:01:57.153Z,81.95
2023-02-11T21:04:29.549Z,81.60
2023-02-11T21:07:02.851Z,81.48
2023-02-11T21:09:33.586Z,81.87
2023-02-11T21:12:03.248Z,81.36
2023-02-11T21:14:32.184Z,81.43
2023-02-11T21:17:00.712Z,81.38
2023-02-11T21:19:29.473Z,81.02
2023-02-11T21:22:00.767Z,80.98
2023-02-11T21:24:30.916Z,80.03
2023-02-11T21:26:59.638Z,80.17
2023-02-11T21:29:28.057Z,79.09
2023-02-11T21:31:56.851Z,78.70
2023-02-11T21:34:25.835Z,77.07
2023-02-11T21:36:54.298Z,75.95
2023-02-11T21:39:26.563Z,74.93
2023-02-11T21:41:55.994Z,74.43
2023-02-11T21:44:24.399Z,73.78
2023-02-11T21:46:52.800Z,73.50
2023-02-11T21:49:21.497Z,72.52
2023-02-11T21:51:49.841Z,73.06
2023-02-11T21:54:19.005Z,72.39
2023-02-11T21:56:51.892Z,71.81
2023-02-11T21:59:20.423Z,71.77
2023-02-11T22:01:48.839Z,71.55
2023-02-11T22:04:17.628Z,70.96
2023-02-11T22:06:46.114Z,70.79
2023-02-11T22:09:14.659Z,71.43
2023-02-11T22:11:43.174Z,70.68
2023-02-11T22:14:13.042Z,70.91
2023-02-11T22:16:41.522Z,70.49
2023-02-11T22:19:10.820Z,70.59
2023-02-11T22:21:40.481Z,70.52
2023-02-11T22:24:09.026Z,70.55
2023-02-11T22:26:37.416Z,71.24
2023-02-11T22:29:05.942Z,71.04
2023-02-11T22:31:37.083Z,71.17
2023-02-11T22:34:06.650Z,70.82
2023-02-11T22:36:37.557Z,70.67
2023-02-11T22:39:09.238Z,70.20
2023-02-11T22:41:39.385Z,70.20
2023-02-11T22:44:08.229Z,69.38
2023-02-11T22:46:39.408Z,69.76
2023-02-11T22:49:09.168Z,70.06
2023-02-11T22:51:37.558Z,69.18
2023-02-11T22:54:08.841Z,69.66
2023-02-11T22:56:37.451Z,68.74
2023-02-11T22:59:08.535Z,68.91
2023-02-11T23:01:38.724Z,68.54
2023-02-11T23:04:09.640Z,68.15
2023-02-11T23:06:38.345Z,68.72
2023-02-11T23:09:12.418Z,68.59
2023-02-11T23:11:41.598Z,68.73
2023-02-11T23:14:12.166Z,68.23
2023-02-11T23:16:42.106Z,69.03
2023-02-11T23:19:12.408Z,68.87
2023-02-11T23:21:40.924Z,68.35
2023-02-11T23:24:12.673Z,67.93
2023-02-11T23:26:41.853Z,68.58
2023-02-11T23:29:10.469Z,68.69
2023-02-11T23:31:44.025Z,68.26
2023-02-11T23:34:15.049Z,68.54
2023-02-11T23:36:43.424Z,68.25
2023-02-11T23:39:15.006Z,67.70
2023-02-11T23:41:43.383Z,68.60
2023-02-11T23:44:12.097Z,68.52
2023-02-11T23:46:42.208Z,68.45
2023-02-11T23:49:10.852Z,69.05
2023-02-11T23:51:39.254Z,68.74
2023-02-11T23:54:07.801Z,68.82
2023-02-11T23:56:37.592Z,69.33
2023-02-11T23:59:06.665Z,68.89
